Anicuns, Brazil
Current Conditions -  °F | °C
As of 7:00 PM on Thursday 20 Nov 2014 (Local Time) from SBGO Reporting Station
Broken Clouds Broken Clouds  
Wind Chill: 84°   Ceiling: 10000
Heat Index: 84°   Visibility: 6mi
Dew Point: 59°   Wind: 7mph
Humidity: 42%   Direction: 350°N
Pressure: 29.91"   Gusts: NA
Location:  16.46°S, 49.96°W
Report Text: SBGO 202100Z 35006KT 9999 FEW035 FEW040TCU BKN100 29/15 Q1013
Loading
Personal Weather Stations






























Interactive Weather Map New forecast layout! Learn more

10-Day Weather Forecast

Advertisements
Track Severe Weather on mobile